KBFLKSME

Guest
Details From KBFL - Meadows Fld
To KSME - Somerset Pulaski Co J T Wilson Fld
Flight Number -
Tags Generated
Created
Modified
Stats Distance 1,663 nm / 3,079 km
Max Altitude 0 ft / 0 m
Waypoints 9
Social Downloads 1
Likes 0
Share VATSIM

Download

Looking for another format? Having issues loading an existing format? Contact us
Advertisement - Login to hide

Notes

Generated

Route

KBFL FOLDD 10189 GOSIP DDC49 FANVO DONGO BLUST KSME

ID Type Via Altitude Latitude Longitude Leg Dist Tot Dist Heading (true) Name
O KBFL APT - 0 ft / 0 m 35.43876˚ -119.06565˚ - 0 nm - -
FOLDD FIX - 0 ft / 0 m 36.36119˚ -114.62890˚ 222 nm 222 nm 74° / 77° -
10189 FIX - 0 ft / 0 m 37.19669˚ -109.38447˚ 257 nm 479 nm 77° / 80° -
GOSIP FIX - 0 ft / 0 m 37.62074˚ -104.59732˚ 229 nm 709 nm 82° / 85° -
DDC49 FIX - 0 ft / 0 m 37.77321˚ -99.97208˚ 219 nm 929 nm 86° / 89° -
FANVO FIX - 0 ft / 0 m 37.76561˚ -94.76931˚ 246 nm 1176 nm 89° / 92° -
DONGO FIX - 0 ft / 0 m 37.49894˚ -89.28481˚ 261 nm 1437 nm 92° / 95° -
BLUST FIX - 0 ft / 0 m 37.07083˚ -84.71174˚ 220 nm 1657 nm 95° / 98° -
O KSME APT - 0 ft / 0 m 37.04898˚ -84.62103˚ 4 nm 1662 nm 107° / 107° -

Altitude Profile

Advertisement - Login to hide

Weather


0- 5 10 15 20 25 30 35+ Temperature / ° C

Clouds and Precipitation
Forecast for 2017-12-12 06:00 UTC. Updated an hour ago

Ground ~20,000 ft ~40,000 ft Winds

KBFL

Details ICAO KBFL (BFL)
Name MEADOWS FLD
Region United States
Timezone America/Los_Angeles (UTC-8.0)
Stats Elevation 507 ft / 155 m (AMSL)
Location 35.433486° -119.057509°
Runways 2
Magnetic Variation 12.431° E

METAR

KBFL 120554Z 06003KT 4SM HZ CLR 06/M01 A3034 RMK AO2 SLP273 T00561006 10189 20056 51009

Decode

TAF

TAF KBFL 120520Z 1206/1306 VRB03KT 4SM HZ SKC= TAF KHND 120520Z 1206/1306 18007KT P6SM SKC FM121700 VRB05KT P6SM SKC FM130100 18007KT P6SM SKC

Decode

Departure Runways

ID Width Length Bearing (true) Bearing (mag) Surface Threshold Offset Overrun Length
12L 151 ft / 46 m 10,865 ft / 3,312 m 135.44° 123.01° Asphalt 0 ft / 0 m 200 ft / 61 m
12R 98 ft / 30 m 7,710 ft / 2,350 m 135.45° 123.02° Asphalt 0 ft / 0 m 0 ft / 0 m
30L 98 ft / 30 m 7,710 ft / 2,350 m 315.46° 303.03° Asphalt 3,383 ft / 1,031 m 0 ft / 0 m
30R 151 ft / 46 m 10,865 ft / 3,312 m 315.46° 303.03° Asphalt 3,428 ft / 1,045 m 801 ft / 244 m

KSME

Details ICAO KSME (SME)
Name SOMERSET PULASKI CO J T WILSON FLD
Region United States
Timezone America/New_York (UTC-5.0)
Stats Elevation 927 ft / 283 m (AMSL)
Location 37.054808° -84.614250°
Runways 1
Magnetic Variation 5.457° W

METAR

KSME 120615Z AUTO 27008KT 10SM CLR 06/M03 A2985 RMK AO2

Decode

TAF

KSME 120540Z 1206/1306 26007G15KT P6SM BKN200 WS020/24035KT FM120900 28009KT P6SM BKN070 WS020/24035KT FM121000 29009G17KT P6SM VCSH OVC040 FM121200 30010G20KT 3SM -SHSN OVC015 FM121500 30010G20KT P6SM VCSH OVC020 FM121800 30012G20KT P6SM BKN035 FM130100 29008KT P6SM SCT250

Decode

Destination Runways

ID Width Length Bearing (true) Bearing (mag) Surface Threshold Offset Overrun Length
05 100 ft / 30 m 5,802 ft / 1,768 m 42.88° 48.34° Asphalt 0 ft / 0 m 0 ft / 0 m
23 100 ft / 30 m 5,802 ft / 1,768 m 222.89° 228.35° Asphalt 300 ft / 91 m 0 ft / 0 m